createdAt,value
2022-10-18T00:00:36.272Z,9.91
2022-10-18T00:03:22.430Z,9.85
2022-10-18T00:06:09.340Z,9.86
2022-10-18T00:08:55.293Z,9.82
2022-10-18T00:11:41.290Z,9.78
2022-10-18T00:14:26.977Z,9.75
2022-10-18T00:17:12.747Z,9.73
2022-10-18T00:19:58.455Z,9.71
2022-10-18T00:22:44.211Z,9.68
2022-10-18T00:25:29.889Z,9.67
2022-10-18T00:28:15.625Z,9.64
2022-10-18T00:31:24.360Z,9.61
2022-10-18T00:34:13.276Z,9.59
2022-10-18T00:36:59.122Z,9.59
2022-10-18T00:39:44.975Z,9.57
2022-10-18T00:42:33.830Z,9.52
2022-10-18T00:45:24.321Z,9.52
2022-10-18T00:48:11.025Z,9.49
2022-10-18T00:50:57.040Z,9.47
2022-10-18T00:53:42.830Z,9.44
2022-10-18T00:56:28.893Z,9.41
2022-10-18T00:59:16.096Z,9.35
2022-10-18T01:02:02.170Z,9.35
2022-10-18T01:04:48.837Z,9.31
2022-10-18T01:07:53.670Z,9.25
2022-10-18T01:11:07.980Z,9.20
2022-10-18T01:14:05.716Z,9.17
2022-10-18T01:17:18.509Z,9.14
2022-10-18T01:20:30.305Z,9.09
2022-10-18T01:23:36.158Z,9.06
2022-10-18T01:26:38.681Z,9.04
2022-10-18T01:30:01.145Z,8.98
2022-10-18T01:32:50.644Z,8.95
2022-10-18T01:35:40.877Z,8.94
2022-10-18T01:38:28.083Z,8.93
2022-10-18T01:41:15.902Z,8.92
2022-10-18T01:44:03.653Z,8.88
2022-10-18T01:46:51.075Z,8.86
2022-10-18T01:49:36.813Z,8.84
2022-10-18T01:52:22.635Z,8.77
2022-10-18T01:55:08.616Z,8.80
2022-10-18T01:58:03.806Z,8.79
2022-10-18T02:00:55.789Z,8.73
2022-10-18T02:03:46.617Z,8.72
2022-10-18T02:06:36.826Z,8.65
2022-10-18T02:09:32.045Z,8.62
2022-10-18T02:12:18.984Z,8.55
2022-10-18T02:15:05.682Z,8.53
2022-10-18T02:17:52.175Z,8.51
2022-10-18T02:20:38.634Z,8.49
2022-10-18T02:23:25.844Z,8.48
2022-10-18T02:26:11.924Z,8.47
2022-10-18T02:28:57.733Z,8.46
2022-10-18T02:31:49.164Z,8.45
2022-10-18T02:34:41.909Z,8.43
2022-10-18T02:37:32.577Z,8.41
2022-10-18T02:40:18.862Z,8.39
2022-10-18T02:43:06.231Z,8.37
2022-10-18T02:45:52.143Z,8.35
2022-10-18T02:48:37.852Z,8.31
2022-10-18T02:51:23.928Z,8.29
2022-10-18T02:54:10.002Z,8.24
2022-10-18T02:56:55.909Z,8.27
2022-10-18T02:59:41.780Z,8.26
2022-10-18T03:02:27.707Z,8.22
2022-10-18T03:05:13.596Z,8.22
2022-10-18T03:07:59.282Z,8.24
2022-10-18T03:10:46.065Z,8.24
2022-10-18T03:13:34.291Z,8.23
2022-10-18T03:16:20.261Z,8.20
2022-10-18T03:19:05.984Z,8.19
2022-10-18T03:21:51.764Z,8.16
2022-10-18T03:24:38.017Z,8.12
2022-10-18T03:27:24.245Z,8.10
2022-10-18T03:30:11.869Z,8.09
2022-10-18T03:32:58.157Z,8.08
2022-10-18T03:35:43.952Z,8.07
2022-10-18T03:38:29.821Z,8.06
2022-10-18T03:41:15.603Z,8.04
2022-10-18T03:44:01.332Z,8.03
2022-10-18T03:46:47.196Z,8.03
2022-10-18T03:52:24.036Z,8.01
2022-10-18T03:55:09.862Z,7.97
2022-10-18T03:57:55.533Z,8.00
2022-10-18T04:00:41.181Z,7.99
2022-10-18T04:03:27.104Z,7.93
2022-10-18T04:06:13.363Z,7.96
2022-10-18T04:08:59.309Z,7.96
2022-10-18T04:11:45.175Z,7.94
2022-10-18T04:14:30.935Z,7.90
2022-10-18T04:17:16.653Z,7.91
2022-10-18T04:20:02.366Z,7.90
2022-10-18T04:22:48.658Z,7.86
2022-10-18T04:25:34.325Z,7.85
2022-10-18T04:28:20.213Z,7.83
2022-10-18T04:31:06.601Z,7.81
2022-10-18T04:33:52.315Z,7.73
2022-10-18T04:36:38.086Z,7.74
2022-10-18T04:39:23.676Z,7.70
2022-10-18T04:42:09.518Z,7.67
2022-10-18T04:44:55.238Z,7.64
2022-10-18T04:47:40.916Z,7.59
2022-10-18T04:50:26.789Z,7.59
2022-10-18T04:53:12.615Z,7.52
2022-10-18T04:55:58.371Z,7.52
2022-10-18T04:58:44.201Z,7.52
2022-10-18T05:01:29.876Z,7.50
2022-10-18T05:04:15.757Z,7.47
2022-10-18T05:07:02.837Z,7.47
2022-10-18T05:09:48.582Z,7.46
2022-10-18T05:12:34.745Z,7.45
2022-10-18T05:15:21.113Z,7.42
2022-10-18T05:18:06.854Z,7.40
2022-10-18T05:20:52.771Z,7.40
2022-10-18T05:23:38.963Z,7.34
2022-10-18T05:26:27.860Z,7.34
2022-10-18T05:29:15.554Z,7.38
2022-10-18T05:32:03.459Z,7.26
2022-10-18T05:34:49.329Z,7.39
2022-10-18T05:37:35.087Z,7.38
2022-10-18T05:40:20.705Z,7.40
2022-10-18T05:43:06.353Z,7.43
2022-10-18T05:45:56.240Z,7.44
2022-10-18T05:48:44.395Z,7.48
2022-10-18T05:51:30.430Z,7.48
2022-10-18T05:54:16.362Z,7.52
2022-10-18T05:57:02.181Z,7.49
2022-10-18T05:59:47.818Z,7.57
2022-10-18T06:02:33.617Z,7.54
2022-10-18T06:05:19.528Z,7.60
2022-10-18T06:08:07.997Z,7.64
2022-10-18T06:10:56.302Z,7.61
2022-10-18T06:13:46.822Z,7.64
2022-10-18T06:16:32.911Z,7.72
2022-10-18T06:19:18.922Z,7.66
2022-10-18T06:22:05.164Z,7.74
2022-10-18T06:24:56.442Z,7.79
2022-10-18T06:27:43.281Z,7.82
2022-10-18T06:30:29.203Z,7.80
2022-10-18T06:33:15.061Z,7.85
2022-10-18T06:36:03.363Z,7.88
2022-10-18T06:38:49.791Z,7.97
2022-10-18T06:41:35.808Z,8.01
2022-10-18T06:44:37.790Z,8.09
2022-10-18T06:47:23.929Z,8.12
2022-10-18T06:50:11.587Z,8.17
2022-10-18T06:52:57.750Z,8.26
2022-10-18T06:55:43.656Z,8.26
2022-10-18T06:58:30.434Z,8.35
2022-10-18T07:01:17.578Z,8.44
2022-10-18T07:04:03.753Z,8.45
2022-10-18T07:06:49.626Z,8.48
2022-10-18T07:09:36.052Z,8.61
2022-10-18T07:12:22.145Z,8.63
2022-10-18T07:15:09.530Z,8.73
2022-10-18T07:17:55.743Z,8.79
2022-10-18T07:20:41.473Z,8.86
2022-10-18T07:23:27.083Z,8.91
2022-10-18T07:26:17.335Z,8.99
2022-10-18T07:29:12.177Z,9.05
2022-10-18T07:31:58.258Z,9.15
2022-10-18T07:34:44.233Z,9.20
2022-10-18T07:37:30.544Z,9.31
2022-10-18T07:40:16.815Z,9.41
2022-10-18T07:43:04.683Z,9.49
2022-10-18T07:46:00.134Z,9.57
2022-10-18T07:48:46.046Z,9.64
2022-10-18T07:51:32.912Z,9.77
2022-10-18T07:54:18.713Z,9.85
2022-10-18T07:57:05.083Z,9.91
2022-10-18T07:59:56.400Z,9.95
2022-10-18T08:02:42.229Z,10.10
2022-10-18T08:05:28.953Z,10.20
2022-10-18T08:08:14.685Z,10.35
2022-10-18T08:11:05.718Z,10.50
2022-10-18T08:13:53.124Z,10.78
2022-10-18T08:16:39.095Z,11.00
2022-10-18T08:19:24.699Z,11.18
2022-10-18T08:22:10.407Z,11.46
2022-10-18T08:24:56.021Z,11.62
2022-10-18T08:27:41.777Z,11.90
2022-10-18T08:30:27.734Z,12.10
2022-10-18T08:33:14.859Z,12.26
2022-10-18T08:36:02.630Z,12.47
2022-10-18T08:38:49.410Z,12.62
2022-10-18T08:41:38.123Z,12.81
2022-10-18T08:44:29.835Z,13.01
2022-10-18T08:47:20.723Z,13.25
2022-10-18T08:50:12.623Z,13.46
2022-10-18T08:53:03.531Z,13.67
2022-10-18T08:55:52.756Z,13.83
2022-10-18T08:58:38.976Z,13.98
2022-10-18T09:01:52.919Z,14.20
2022-10-18T09:05:10.323Z,14.42
2022-10-18T09:08:38.869Z,14.63
2022-10-18T09:11:49.293Z,14.86
2022-10-18T09:14:47.316Z,15.05
2022-10-18T09:18:03.425Z,15.25
2022-10-18T09:20:59.409Z,15.41
2022-10-18T09:23:49.581Z,15.67
2022-10-18T09:26:46.538Z,15.82
2022-10-18T09:29:52.226Z,16.02
2022-10-18T09:32:56.467Z,16.18
2022-10-18T09:36:01.683Z,16.31
2022-10-18T09:38:58.640Z,16.52
2022-10-18T09:41:57.682Z,16.66
2022-10-18T09:45:06.715Z,16.83
2022-10-18T09:48:17.505Z,17.01
2022-10-18T09:51:17.671Z,17.21
2022-10-18T09:54:26.768Z,17.47
2022-10-18T09:57:20.958Z,17.72
2022-10-18T10:00:15.910Z,17.95
2022-10-18T10:03:02.006Z,18.14
2022-10-18T10:06:02.447Z,18.34
2022-10-18T10:08:50.367Z,18.54
2022-10-18T10:11:45.413Z,18.71
2022-10-18T10:14:43.622Z,18.96
2022-10-18T10:17:31.321Z,19.14
2022-10-18T10:20:25.827Z,19.36
2022-10-18T10:23:25.944Z,19.54
2022-10-18T10:26:25.390Z,19.74
2022-10-18T10:29:57.683Z,19.88
2022-10-18T10:32:51.455Z,20.22
2022-10-18T10:35:53.033Z,20.49
2022-10-18T10:38:39.953Z,20.74
2022-10-18T10:41:25.666Z,20.97
2022-10-18T10:44:19.318Z,21.23
2022-10-18T10:47:06.356Z,21.47
2022-10-18T10:49:52.295Z,21.68
2022-10-18T10:52:40.443Z,21.88
2022-10-18T10:55:35.572Z,22.07
2022-10-18T10:58:21.982Z,22.30
2022-10-18T11:01:18.865Z,22.56
2022-10-18T11:04:24.933Z,22.93
2022-10-18T11:07:26.102Z,23.35
2022-10-18T11:10:12.424Z,23.92
2022-10-18T11:13:35.930Z,24.81
2022-10-18T11:16:35.752Z,25.55
2022-10-18T11:19:56.744Z,26.79
2022-10-18T11:22:47.608Z,27.97
2022-10-18T11:26:10.778Z,29.27
2022-10-18T11:29:06.042Z,30.41
2022-10-18T11:32:07.037Z,31.21
2022-10-18T11:34:52.769Z,31.80
2022-10-18T11:38:12.357Z,32.44
2022-10-18T11:41:04.102Z,32.84
2022-10-18T11:44:04.468Z,33.45
2022-10-18T11:47:31.938Z,34.06
2022-10-18T11:50:34.493Z,34.48
2022-10-18T11:53:38.489Z,34.99
2022-10-18T11:56:29.495Z,35.45
2022-10-18T11:59:28.872Z,35.93
2022-10-18T12:02:49.716Z,36.45
2022-10-18T12:05:38.709Z,36.85
2022-10-18T12:08:39.179Z,37.31
2022-10-18T12:11:32.990Z,37.54
2022-10-18T12:14:36.514Z,37.91
2022-10-18T12:17:49.883Z,38.13
2022-10-18T12:20:43.629Z,38.65
2022-10-18T12:23:29.240Z,38.71
2022-10-18T12:26:15.305Z,38.92
2022-10-18T12:29:18.397Z,39.20
2022-10-18T12:32:13.489Z,39.45
2022-10-18T12:35:04.226Z,39.56
2022-10-18T12:38:18.182Z,39.84
2022-10-18T12:41:03.944Z,40.09
2022-10-18T12:43:55.341Z,39.86
2022-10-18T12:46:49.472Z,39.98
2022-10-18T12:49:42.593Z,40.09
2022-10-18T12:52:33.872Z,40.23
2022-10-18T12:55:19.860Z,40.40
2022-10-18T12:58:21.841Z,40.73
2022-10-18T13:01:08.085Z,40.72
2022-10-18T13:03:57.004Z,40.94
2022-10-18T13:06:58.555Z,41.29
2022-10-18T13:10:15.021Z,41.61
2022-10-18T13:13:39.155Z,41.84
2022-10-18T13:16:44.135Z,42.05
2022-10-18T13:20:07.792Z,42.37
2022-10-18T13:23:05.846Z,42.53
2022-10-18T13:26:16.640Z,42.82
2022-10-18T13:29:35.881Z,42.96
2022-10-18T13:32:54.107Z,42.88
2022-10-18T13:35:52.252Z,43.03
2022-10-18T13:38:44.874Z,43.05
2022-10-18T13:41:55.106Z,43.31
2022-10-18T13:44:44.831Z,43.06
2022-10-18T13:47:36.195Z,43.15
2022-10-18T13:50:31.368Z,43.22
2022-10-18T13:53:34.564Z,43.16
2022-10-18T13:56:45.868Z,43.28
2022-10-18T13:59:51.011Z,43.26
2022-10-18T14:02:51.533Z,42.97
2022-10-18T14:05:46.092Z,42.71
2022-10-18T14:08:32.046Z,42.89
2022-10-18T14:11:46.196Z,41.64
2022-10-18T14:14:44.426Z,40.13
2022-10-18T14:17:44.412Z,38.61
2022-10-18T14:20:49.045Z,36.93
2022-10-18T14:23:40.518Z,35.40
2022-10-18T14:26:29.359Z,34.12
2022-10-18T14:29:22.829Z,32.98
2022-10-18T14:32:15.687Z,31.81
2022-10-18T14:35:30.451Z,30.83
2022-10-18T14:38:14.065Z,29.92
2022-10-18T14:41:23.174Z,29.17
2022-10-18T14:44:22.098Z,28.37
2022-10-18T14:47:30.353Z,27.70
2022-10-18T14:50:30.395Z,27.06
2022-10-18T14:53:22.049Z,26.47
2022-10-18T14:56:08.631Z,25.99
2022-10-18T14:58:55.825Z,25.60
2022-10-18T15:01:51.875Z,25.25
2022-10-18T15:04:38.003Z,24.89
2022-10-18T15:07:25.010Z,24.57
2022-10-18T15:10:22.696Z,24.35
2022-10-18T15:13:10.241Z,23.98
2022-10-18T15:15:57.587Z,23.75
2022-10-18T15:18:43.397Z,23.54
2022-10-18T15:21:29.343Z,23.30
2022-10-18T15:24:29.468Z,23.08
2022-10-18T15:27:31.581Z,22.79
2022-10-18T15:30:28.026Z,22.47
2022-10-18T15:33:23.011Z,22.28
2022-10-18T15:36:27.124Z,22.01
2022-10-18T15:39:21.386Z,21.78
2022-10-18T15:42:27.106Z,21.59
2022-10-18T15:45:34.462Z,21.36
2022-10-18T15:48:22.162Z,21.15
2022-10-18T15:51:48.910Z,20.93
2022-10-18T15:54:34.674Z,20.74
2022-10-18T15:57:20.816Z,20.54
2022-10-18T16:00:08.437Z,20.37
2022-10-18T16:03:01.420Z,20.17
2022-10-18T16:05:47.083Z,19.96
2022-10-18T16:08:40.515Z,19.82
2022-10-18T16:11:26.727Z,19.63
2022-10-18T16:14:14.013Z,19.53
2022-10-18T16:17:03.010Z,19.36
2022-10-18T16:19:48.764Z,19.15
2022-10-18T16:22:37.103Z,19.09
2022-10-18T16:25:23.088Z,18.96
2022-10-18T16:28:20.488Z,18.76
2022-10-18T16:31:06.728Z,18.65
2022-10-18T16:33:53.842Z,18.49
2022-10-18T16:36:39.907Z,18.32
2022-10-18T16:39:25.852Z,18.22
2022-10-18T16:42:12.709Z,18.08
2022-10-18T16:44:59.488Z,17.90
2022-10-18T16:47:45.610Z,17.79
2022-10-18T16:50:34.685Z,17.64
2022-10-18T16:53:23.908Z,17.54
2022-10-18T16:56:18.263Z,17.36
2022-10-18T16:59:04.839Z,17.22
2022-10-18T17:01:50.937Z,17.13
2022-10-18T17:04:36.865Z,17.11
2022-10-18T17:07:24.666Z,17.02
2022-10-18T17:10:18.337Z,16.93
2022-10-18T17:13:04.368Z,16.83
2022-10-18T17:15:50.859Z,16.78
2022-10-18T17:18:37.383Z,16.66
2022-10-18T17:21:24.767Z,16.55
2022-10-18T17:24:12.669Z,16.42
2022-10-18T17:26:58.611Z,16.44
2022-10-18T17:29:44.328Z,16.31
2022-10-18T17:32:30.268Z,16.20
2022-10-18T17:35:16.707Z,16.17
2022-10-18T17:38:07.004Z,16.07
2022-10-18T17:40:53.470Z,15.99
2022-10-18T17:46:32.024Z,15.77
2022-10-18T17:49:18.297Z,15.72
2022-10-18T17:52:07.015Z,15.57
2022-10-18T17:54:53.015Z,15.47
2022-10-18T17:57:40.500Z,15.37
2022-10-18T18:00:26.973Z,15.27
2022-10-18T18:03:13.607Z,15.13
2022-10-18T18:05:59.605Z,15.02
2022-10-18T18:08:45.776Z,14.95
2022-10-18T18:11:31.772Z,14.85
2022-10-18T18:14:18.295Z,14.72
2022-10-18T18:17:04.105Z,14.62
2022-10-18T18:19:50.130Z,14.52
2022-10-18T18:22:40.370Z,14.45
2022-10-18T18:25:28.875Z,14.40
2022-10-18T18:28:14.643Z,14.37
2022-10-18T18:31:08.243Z,14.23
2022-10-18T18:33:56.507Z,14.21
2022-10-18T18:36:43.059Z,14.12
2022-10-18T18:39:35.686Z,14.07
2022-10-18T18:42:22.635Z,14.00
2022-10-18T18:45:08.714Z,14.02
2022-10-18T18:47:54.829Z,13.95
2022-10-18T18:50:41.078Z,13.91
2022-10-18T18:53:29.514Z,13.84
2022-10-18T18:56:26.752Z,13.71
2022-10-18T18:59:14.385Z,13.72
2022-10-18T19:02:00.455Z,13.58
2022-10-18T19:04:46.262Z,13.55
2022-10-18T19:07:32.508Z,13.51
2022-10-18T19:10:18.568Z,13.39
2022-10-18T19:13:04.362Z,13.39
2022-10-18T19:15:50.159Z,13.32
2022-10-18T19:18:36.216Z,13.22
2022-10-18T19:21:23.720Z,13.27
2022-10-18T19:24:09.933Z,13.13
2022-10-18T19:26:58.643Z,13.15
2022-10-18T19:29:46.114Z,13.08
2022-10-18T19:32:32.120Z,12.99
2022-10-18T19:35:18.580Z,12.97
2022-10-18T19:38:04.565Z,12.85
2022-10-18T19:40:53.759Z,12.86
2022-10-18T19:43:40.167Z,12.77
2022-10-18T19:46:26.623Z,12.80
2022-10-18T19:49:12.491Z,12.74
2022-10-18T19:51:58.973Z,12.69
2022-10-18T19:54:45.193Z,12.66
2022-10-18T19:57:31.060Z,12.70
2022-10-18T20:00:19.439Z,12.62
2022-10-18T20:03:05.853Z,12.62
2022-10-18T20:05:59.434Z,12.61
2022-10-18T20:08:45.150Z,12.49
2022-10-18T20:11:31.189Z,12.54
2022-10-18T20:14:17.158Z,12.47
2022-10-18T20:17:02.966Z,12.50
2022-10-18T20:19:49.096Z,12.45
2022-10-18T20:22:35.081Z,12.40
2022-10-18T20:25:21.350Z,12.46
2022-10-18T20:28:07.593Z,12.43
2022-10-18T20:31:07.430Z,12.34
2022-10-18T20:34:01.524Z,12.32
2022-10-18T20:36:47.502Z,12.28
2022-10-18T20:39:34.175Z,12.21
2022-10-18T20:42:19.945Z,12.20
2022-10-18T20:45:07.486Z,12.12
2022-10-18T20:47:53.225Z,12.14
2022-10-18T20:50:42.374Z,12.02
2022-10-18T20:53:28.460Z,12.02
2022-10-18T20:56:16.821Z,12.00
2022-10-18T20:59:02.948Z,11.86
2022-10-18T21:01:48.901Z,11.87
2022-10-18T21:04:36.642Z,11.77
2022-10-18T21:07:24.501Z,11.73
2022-10-18T21:10:10.506Z,11.69
2022-10-18T21:12:56.437Z,11.60
2022-10-18T21:15:42.453Z,11.47
2022-10-18T21:18:30.361Z,11.40
2022-10-18T21:21:23.737Z,11.35
2022-10-18T21:24:10.219Z,11.28
2022-10-18T21:26:56.210Z,11.22
2022-10-18T21:29:42.131Z,11.25
2022-10-18T21:32:28.291Z,11.16
2022-10-18T21:35:14.527Z,11.17
2022-10-18T21:38:00.675Z,11.13
2022-10-18T21:40:46.790Z,11.07
2022-10-18T21:43:32.514Z,11.11
2022-10-18T21:46:19.669Z,11.07
2022-10-18T21:49:06.418Z,11.05
2022-10-18T21:51:51.981Z,10.97
2022-10-18T21:54:37.837Z,10.91
2022-10-18T21:57:23.867Z,10.86
2022-10-18T22:00:10.251Z,10.82
2022-10-18T22:03:09.316Z,10.81
2022-10-18T22:06:04.240Z,10.77
2022-10-18T22:08:52.366Z,10.74
2022-10-18T22:11:46.566Z,10.69
2022-10-18T22:14:32.619Z,10.61
2022-10-18T22:17:18.757Z,10.57
2022-10-18T22:20:05.514Z,10.51
2022-10-18T22:22:54.063Z,10.47
2022-10-18T22:25:39.845Z,10.48
2022-10-18T22:28:25.662Z,10.47
2022-10-18T22:31:16.793Z,10.44
2022-10-18T22:34:06.077Z,10.42
2022-10-18T22:36:52.390Z,10.35
2022-10-18T22:39:38.483Z,10.36
2022-10-18T22:42:24.198Z,10.27
2022-10-18T22:45:10.390Z,10.28
2022-10-18T22:47:56.407Z,10.25
2022-10-18T22:50:42.523Z,10.14
2022-10-18T22:53:29.100Z,10.12
2022-10-18T22:56:20.625Z,10.00
2022-10-18T22:59:06.481Z,10.01
2022-10-18T23:01:52.325Z,9.96
2022-10-18T23:04:38.391Z,9.91
2022-10-18T23:07:24.146Z,9.85
2022-10-18T23:10:10.154Z,9.85
2022-10-18T23:12:55.887Z,9.84
2022-10-18T23:15:41.678Z,9.82
2022-10-18T23:18:27.663Z,9.70
2022-10-18T23:21:13.954Z,9.71
2022-10-18T23:24:00.111Z,9.74
2022-10-18T23:26:46.028Z,9.72
2022-10-18T23:29:31.945Z,9.65
2022-10-18T23:32:18.030Z,9.62
2022-10-18T23:35:05.061Z,9.64
2022-10-18T23:37:52.431Z,9.62
2022-10-18T23:40:38.567Z,9.47
2022-10-18T23:43:24.599Z,9.56
2022-10-18T23:46:10.955Z,9.48
2022-10-18T23:48:56.889Z,9.47
2022-10-18T23:51:42.826Z,9.40
2022-10-18T23:54:28.733Z,9.45
2022-10-18T23:57:14.625Z,9.41
